sensor_id;sensor_type;location;lat;lon;timestamp;temperature;humidity
67050;DHT22;53955;52.442;13.284;2023-11-19T00:00:21;7.00;71.90
67050;DHT22;53955;52.442;13.284;2023-11-19T00:02:50;7.00;71.80
67050;DHT22;53955;52.442;13.284;2023-11-19T00:05:17;7.00;72.10
67050;DHT22;53955;52.442;13.284;2023-11-19T00:07:44;6.90;72.10
67050;DHT22;53955;52.442;13.284;2023-11-19T00:10:11;6.90;71.70
67050;DHT22;53955;52.442;13.284;2023-11-19T00:12:39;7.00;71.90
67050;DHT22;53955;52.442;13.284;2023-11-19T00:15:06;6.80;71.80
67050;DHT22;53955;52.442;13.284;2023-11-19T00:17:36;6.80;72.20
67050;DHT22;53955;52.442;13.284;2023-11-19T00:20:05;7.00;72.00
67050;DHT22;53955;52.442;13.284;2023-11-19T00:22:31;7.00;72.20
67050;DHT22;53955;52.442;13.284;2023-11-19T00:24:58;7.10;72.10
67050;DHT22;53955;52.442;13.284;2023-11-19T00:27:25;7.00;71.80
67050;DHT22;53955;52.442;13.284;2023-11-19T00:29:52;7.10;71.10
67050;DHT22;53955;52.442;13.284;2023-11-19T00:32:19;7.00;71.70
67050;DHT22;53955;52.442;13.284;2023-11-19T00:34:45;7.00;70.70
67050;DHT22;53955;52.442;13.284;2023-11-19T00:37:14;7.20;71.20
67050;DHT22;53955;52.442;13.284;2023-11-19T00:39:41;7.20;71.30
67050;DHT22;53955;52.442;13.284;2023-11-19T00:42:09;7.20;71.20
67050;DHT22;53955;52.442;13.284;2023-11-19T00:44:36;7.20;71.40
67050;DHT22;53955;52.442;13.284;2023-11-19T00:47:03;7.00;71.10
67050;DHT22;53955;52.442;13.284;2023-11-19T00:49:30;7.10;71.40
67050;DHT22;53955;52.442;13.284;2023-11-19T00:51:58;7.00;72.10
67050;DHT22;53955;52.442;13.284;2023-11-19T00:54:26;6.90;71.90
67050;DHT22;53955;52.442;13.284;2023-11-19T00:56:53;7.00;72.20
67050;DHT22;53955;52.442;13.284;2023-11-19T00:59:19;6.90;72.20
67050;DHT22;53955;52.442;13.284;2023-11-19T01:01:46;6.80;72.30
67050;DHT22;53955;52.442;13.284;2023-11-19T01:04:14;6.90;71.80
67050;DHT22;53955;52.442;13.284;2023-11-19T01:06:41;6.90;72.60
67050;DHT22;53955;52.442;13.284;2023-11-19T01:09:08;6.90;72.70
67050;DHT22;53955;52.442;13.284;2023-11-19T01:11:36;7.00;71.90
67050;DHT22;53955;52.442;13.284;2023-11-19T01:14:03;7.20;72.30
67050;DHT22;53955;52.442;13.284;2023-11-19T01:16:30;7.20;71.60
67050;DHT22;53955;52.442;13.284;2023-11-19T01:18:56;7.10;71.70
67050;DHT22;53955;52.442;13.284;2023-11-19T01:21:23;7.00;71.50
67050;DHT22;53955;52.442;13.284;2023-11-19T01:23:49;7.10;71.70
67050;DHT22;53955;52.442;13.284;2023-11-19T01:26:16;7.10;71.40
67050;DHT22;53955;52.442;13.284;2023-11-19T01:28:44;7.10;71.10
67050;DHT22;53955;52.442;13.284;2023-11-19T01:31:12;7.00;70.80
67050;DHT22;53955;52.442;13.284;2023-11-19T01:33:41;6.90;71.60
67050;DHT22;53955;52.442;13.284;2023-11-19T01:36:08;7.00;71.50
67050;DHT22;53955;52.442;13.284;2023-11-19T01:38:36;7.00;71.30
67050;DHT22;53955;52.442;13.284;2023-11-19T01:41:03;7.00;71.90
67050;DHT22;53955;52.442;13.284;2023-11-19T01:43:34;7.00;72.40
67050;DHT22;53955;52.442;13.284;2023-11-19T01:46:03;7.10;72.50
67050;DHT22;53955;52.442;13.284;2023-11-19T01:48:31;7.10;72.30
67050;DHT22;53955;52.442;13.284;2023-11-19T01:51:00;7.10;71.50
67050;DHT22;53955;52.442;13.284;2023-11-19T01:53:27;7.10;72.90
67050;DHT22;53955;52.442;13.284;2023-11-19T01:55:55;7.10;72.80
67050;DHT22;53955;52.442;13.284;2023-11-19T01:58:23;7.10;73.20
67050;DHT22;53955;52.442;13.284;2023-11-19T02:00:50;7.00;73.30
67050;DHT22;53955;52.442;13.284;2023-11-19T02:03:19;7.10;73.00
67050;DHT22;53955;52.442;13.284;2023-11-19T02:05:48;6.90;73.00
67050;DHT22;53955;52.442;13.284;2023-11-19T02:08:16;6.80;72.80
67050;DHT22;53955;52.442;13.284;2023-11-19T02:10:43;7.00;73.20
67050;DHT22;53955;52.442;13.284;2023-11-19T02:13:09;7.00;73.20
67050;DHT22;53955;52.442;13.284;2023-11-19T02:15:36;7.00;73.50
67050;DHT22;53955;52.442;13.284;2023-11-19T02:18:19;7.20;73.60
67050;DHT22;53955;52.442;13.284;2023-11-19T02:20:47;7.20;73.70
67050;DHT22;53955;52.442;13.284;2023-11-19T02:23:13;7.30;72.70
67050;DHT22;53955;52.442;13.284;2023-11-19T02:25:40;7.10;73.00
67050;DHT22;53955;52.442;13.284;2023-11-19T02:28:09;7.10;72.10
67050;DHT22;53955;52.442;13.284;2023-11-19T02:30:37;7.30;73.00
67050;DHT22;53955;52.442;13.284;2023-11-19T02:33:04;7.10;72.70
67050;DHT22;53955;52.442;13.284;2023-11-19T02:35:32;7.10;73.30
67050;DHT22;53955;52.442;13.284;2023-11-19T02:37:59;7.20;72.30
67050;DHT22;53955;52.442;13.284;2023-11-19T02:40:25;7.20;72.50
67050;DHT22;53955;52.442;13.284;2023-11-19T02:42:52;7.30;72.90
67050;DHT22;53955;52.442;13.284;2023-11-19T02:45:21;7.30;73.50
67050;DHT22;53955;52.442;13.284;2023-11-19T02:47:48;7.30;73.00
67050;DHT22;53955;52.442;13.284;2023-11-19T02:50:14;7.30;72.40
67050;DHT22;53955;52.442;13.284;2023-11-19T02:52:41;7.20;72.00
67050;DHT22;53955;52.442;13.284;2023-11-19T02:55:09;7.20;73.10
67050;DHT22;53955;52.442;13.284;2023-11-19T02:57:38;7.20;73.00
67050;DHT22;53955;52.442;13.284;2023-11-19T03:00:06;7.40;73.40
67050;DHT22;53955;52.442;13.284;2023-11-19T03:02:39;7.30;72.40
67050;DHT22;53955;52.442;13.284;2023-11-19T03:05:10;7.40;73.00
67050;DHT22;53955;52.442;13.284;2023-11-19T03:07:37;7.50;73.10
67050;DHT22;53955;52.442;13.284;2023-11-19T03:10:04;7.30;72.80
67050;DHT22;53955;52.442;13.284;2023-11-19T03:12:31;7.40;73.30
67050;DHT22;53955;52.442;13.284;2023-11-19T03:14:58;7.50;72.20
67050;DHT22;53955;52.442;13.284;2023-11-19T03:17:24;7.40;73.00
67050;DHT22;53955;52.442;13.284;2023-11-19T03:19:53;7.40;72.90
67050;DHT22;53955;52.442;13.284;2023-11-19T03:22:19;7.40;73.50
67050;DHT22;53955;52.442;13.284;2023-11-19T03:24:46;7.30;73.90
67050;DHT22;53955;52.442;13.284;2023-11-19T03:27:13;7.00;75.10
67050;DHT22;53955;52.442;13.284;2023-11-19T03:29:40;7.10;75.80
67050;DHT22;53955;52.442;13.284;2023-11-19T03:32:06;7.40;76.50
67050;DHT22;53955;52.442;13.284;2023-11-19T03:34:33;7.30;77.50
67050;DHT22;53955;52.442;13.284;2023-11-19T03:37:01;7.30;78.40
67050;DHT22;53955;52.442;13.284;2023-11-19T03:39:29;7.20;78.60
67050;DHT22;53955;52.442;13.284;2023-11-19T03:41:55;7.30;79.50
67050;DHT22;53955;52.442;13.284;2023-11-19T03:44:22;7.20;79.40
67050;DHT22;53955;52.442;13.284;2023-11-19T03:46:48;7.20;80.10
67050;DHT22;53955;52.442;13.284;2023-11-19T03:49:15;7.00;80.10
67050;DHT22;53955;52.442;13.284;2023-11-19T03:51:41;7.00;81.10
67050;DHT22;53955;52.442;13.284;2023-11-19T03:54:09;6.90;80.80
67050;DHT22;53955;52.442;13.284;2023-11-19T03:56:37;6.80;81.70
67050;DHT22;53955;52.442;13.284;2023-11-19T03:59:03;6.70;82.10
67050;DHT22;53955;52.442;13.284;2023-11-19T04:01:30;6.80;82.00
67050;DHT22;53955;52.442;13.284;2023-11-19T04:03:56;6.70;82.80
67050;DHT22;53955;52.442;13.284;2023-11-19T04:06:23;6.80;83.10
67050;DHT22;53955;52.442;13.284;2023-11-19T04:08:49;6.70;83.30
67050;DHT22;53955;52.442;13.284;2023-11-19T04:11:17;6.50;83.80
67050;DHT22;53955;52.442;13.284;2023-11-19T04:13:44;6.70;84.00
67050;DHT22;53955;52.442;13.284;2023-11-19T04:16:10;6.50;84.00
67050;DHT22;53955;52.442;13.284;2023-11-19T04:18:37;6.50;84.70
67050;DHT22;53955;52.442;13.284;2023-11-19T04:21:06;6.70;84.30
67050;DHT22;53955;52.442;13.284;2023-11-19T04:23:32;6.80;84.10
67050;DHT22;53955;52.442;13.284;2023-11-19T04:26:02;6.80;84.10
67050;DHT22;53955;52.442;13.284;2023-11-19T04:28:30;6.70;84.00
67050;DHT22;53955;52.442;13.284;2023-11-19T04:30:57;6.60;84.00
67050;DHT22;53955;52.442;13.284;2023-11-19T04:33:23;6.60;84.80
67050;DHT22;53955;52.442;13.284;2023-11-19T04:35:50;6.60;84.40
67050;DHT22;53955;52.442;13.284;2023-11-19T04:38:17;6.70;84.40
67050;DHT22;53955;52.442;13.284;2023-11-19T04:40:43;6.80;85.10
67050;DHT22;53955;52.442;13.284;2023-11-19T04:43:10;6.60;85.10
67050;DHT22;53955;52.442;13.284;2023-11-19T04:45:38;7.00;84.60
67050;DHT22;53955;52.442;13.284;2023-11-19T04:48:05;7.00;84.10
67050;DHT22;53955;52.442;13.284;2023-11-19T04:50:31;7.00;84.20
67050;DHT22;53955;52.442;13.284;2023-11-19T04:55:25;7.00;84.50
67050;DHT22;53955;52.442;13.284;2023-11-19T04:57:54;6.90;85.00
67050;DHT22;53955;52.442;13.284;2023-11-19T05:00:20;7.10;84.40
67050;DHT22;53955;52.442;13.284;2023-11-19T05:02:49;7.00;84.80
67050;DHT22;53955;52.442;13.284;2023-11-19T05:05:16;7.10;85.10
67050;DHT22;53955;52.442;13.284;2023-11-19T05:07:42;7.20;84.90
67050;DHT22;53955;52.442;13.284;2023-11-19T05:10:09;7.20;85.00
67050;DHT22;53955;52.442;13.284;2023-11-19T05:12:36;7.20;84.80
67050;DHT22;53955;52.442;13.284;2023-11-19T05:15:02;7.20;84.80
67050;DHT22;53955;52.442;13.284;2023-11-19T05:17:29;7.00;85.30
67050;DHT22;53955;52.442;13.284;2023-11-19T05:19:57;7.10;84.90
67050;DHT22;53955;52.442;13.284;2023-11-19T05:22:23;7.10;84.80
67050;DHT22;53955;52.442;13.284;2023-11-19T05:24:51;7.00;85.20
67050;DHT22;53955;52.442;13.284;2023-11-19T05:27:17;6.80;84.80
67050;DHT22;53955;52.442;13.284;2023-11-19T05:29:44;6.90;85.40
67050;DHT22;53955;52.442;13.284;2023-11-19T05:32:11;6.80;85.50
67050;DHT22;53955;52.442;13.284;2023-11-19T05:34:37;6.90;85.50
67050;DHT22;53955;52.442;13.284;2023-11-19T05:37:05;7.00;86.20
67050;DHT22;53955;52.442;13.284;2023-11-19T05:39:32;7.00;86.10
67050;DHT22;53955;52.442;13.284;2023-11-19T05:41:58;7.00;86.20
67050;DHT22;53955;52.442;13.284;2023-11-19T05:44:25;7.00;85.50
67050;DHT22;53955;52.442;13.284;2023-11-19T05:46:52;6.90;85.90
67050;DHT22;53955;52.442;13.284;2023-11-19T05:49:18;7.00;86.10
67050;DHT22;53955;52.442;13.284;2023-11-19T05:51:45;7.00;86.40
67050;DHT22;53955;52.442;13.284;2023-11-19T05:54:13;7.10;86.10
67050;DHT22;53955;52.442;13.284;2023-11-19T05:56:40;7.20;86.00
67050;DHT22;53955;52.442;13.284;2023-11-19T05:59:07;7.20;86.30
67050;DHT22;53955;52.442;13.284;2023-11-19T06:01:40;7.10;86.20
67050;DHT22;53955;52.442;13.284;2023-11-19T06:04:07;7.10;85.90
67050;DHT22;53955;52.442;13.284;2023-11-19T06:06:33;7.00;86.50
67050;DHT22;53955;52.442;13.284;2023-11-19T06:09:00;7.10;85.90
67050;DHT22;53955;52.442;13.284;2023-11-19T06:11:33;7.00;86.60
67050;DHT22;53955;52.442;13.284;2023-11-19T06:14:01;7.00;86.50
67050;DHT22;53955;52.442;13.284;2023-11-19T06:16:28;6.90;86.60
67050;DHT22;53955;52.442;13.284;2023-11-19T06:18:55;6.90;86.80
67050;DHT22;53955;52.442;13.284;2023-11-19T06:21:21;7.10;86.50
67050;DHT22;53955;52.442;13.284;2023-11-19T06:23:48;7.00;87.20
67050;DHT22;53955;52.442;13.284;2023-11-19T06:26:17;6.90;86.90
67050;DHT22;53955;52.442;13.284;2023-11-19T06:28:45;7.00;87.50
67050;DHT22;53955;52.442;13.284;2023-11-19T06:31:11;6.80;87.20
67050;DHT22;53955;52.442;13.284;2023-11-19T06:33:41;7.10;87.00
67050;DHT22;53955;52.442;13.284;2023-11-19T06:36:08;7.10;87.00
67050;DHT22;53955;52.442;13.284;2023-11-19T06:38:35;7.10;86.90
67050;DHT22;53955;52.442;13.284;2023-11-19T06:41:01;7.10;86.90
67050;DHT22;53955;52.442;13.284;2023-11-19T06:43:32;7.00;87.40
67050;DHT22;53955;52.442;13.284;2023-11-19T06:46:00;7.00;87.30
67050;DHT22;53955;52.442;13.284;2023-11-19T06:48:27;6.90;87.30
67050;DHT22;53955;52.442;13.284;2023-11-19T06:50:53;6.90;87.40
67050;DHT22;53955;52.442;13.284;2023-11-19T06:53:20;7.00;87.10
67050;DHT22;53955;52.442;13.284;2023-11-19T06:55:46;7.00;87.70
67050;DHT22;53955;52.442;13.284;2023-11-19T06:58:14;7.10;87.40
67050;DHT22;53955;52.442;13.284;2023-11-19T07:00:40;7.10;87.70
67050;DHT22;53955;52.442;13.284;2023-11-19T07:03:08;7.20;87.80
67050;DHT22;53955;52.442;13.284;2023-11-19T07:05:36;7.10;87.70
67050;DHT22;53955;52.442;13.284;2023-11-19T07:08:03;7.20;87.30
67050;DHT22;53955;52.442;13.284;2023-11-19T07:10:30;7.20;87.70
67050;DHT22;53955;52.442;13.284;2023-11-19T07:12:56;7.10;87.70
67050;DHT22;53955;52.442;13.284;2023-11-19T07:15:23;7.20;88.40
67050;DHT22;53955;52.442;13.284;2023-11-19T07:17:50;7.30;87.60
67050;DHT22;53955;52.442;13.284;2023-11-19T07:20:18;7.20;87.90
67050;DHT22;53955;52.442;13.284;2023-11-19T07:22:44;7.50;87.80
67050;DHT22;53955;52.442;13.284;2023-11-19T07:25:12;7.50;87.70
67050;DHT22;53955;52.442;13.284;2023-11-19T07:27:39;7.30;87.60
67050;DHT22;53955;52.442;13.284;2023-11-19T07:30:06;7.50;87.70
67050;DHT22;53955;52.442;13.284;2023-11-19T07:32:33;7.60;87.90
67050;DHT22;53955;52.442;13.284;2023-11-19T07:35:00;7.50;88.00
67050;DHT22;53955;52.442;13.284;2023-11-19T07:37:28;7.60;87.80
67050;DHT22;53955;52.442;13.284;2023-11-19T07:39:54;7.80;88.20
67050;DHT22;53955;52.442;13.284;2023-11-19T07:42:21;7.80;88.00
67050;DHT22;53955;52.442;13.284;2023-11-19T07:44:48;7.80;87.90
67050;DHT22;53955;52.442;13.284;2023-11-19T07:47:14;7.80;88.10
67050;DHT22;53955;52.442;13.284;2023-11-19T07:49:41;7.90;87.40
67050;DHT22;53955;52.442;13.284;2023-11-19T07:52:09;7.80;87.40
67050;DHT22;53955;52.442;13.284;2023-11-19T07:54:37;7.90;87.30
67050;DHT22;53955;52.442;13.284;2023-11-19T07:57:03;8.00;87.80
67050;DHT22;53955;52.442;13.284;2023-11-19T07:59:30;8.00;87.40
67050;DHT22;53955;52.442;13.284;2023-11-19T08:01:57;8.00;87.60
67050;DHT22;53955;52.442;13.284;2023-11-19T08:04:23;8.10;87.70
67050;DHT22;53955;52.442;13.284;2023-11-19T08:06:50;8.10;88.00
67050;DHT22;53955;52.442;13.284;2023-11-19T08:09:17;8.10;87.90
67050;DHT22;53955;52.442;13.284;2023-11-19T08:11:45;8.30;88.40
67050;DHT22;53955;52.442;13.284;2023-11-19T08:14:11;8.50;87.40
67050;DHT22;53955;52.442;13.284;2023-11-19T08:16:38;8.40;87.60
67050;DHT22;53955;52.442;13.284;2023-11-19T08:19:05;8.50;87.60
67050;DHT22;53955;52.442;13.284;2023-11-19T08:21:32;8.50;87.20
67050;DHT22;53955;52.442;13.284;2023-11-19T08:23:58;8.50;87.50
67050;DHT22;53955;52.442;13.284;2023-11-19T08:26:25;8.60;87.30
67050;DHT22;53955;52.442;13.284;2023-11-19T08:28:53;8.80;88.20
67050;DHT22;53955;52.442;13.284;2023-11-19T08:31:19;8.80;87.70
67050;DHT22;53955;52.442;13.284;2023-11-19T08:33:46;8.80;87.90
67050;DHT22;53955;52.442;13.284;2023-11-19T08:36:15;8.80;87.90
67050;DHT22;53955;52.442;13.284;2023-11-19T08:38:42;8.80;88.20
67050;DHT22;53955;52.442;13.284;2023-11-19T08:41:09;8.90;88.20
67050;DHT22;53955;52.442;13.284;2023-11-19T08:43:35;8.90;87.60
67050;DHT22;53955;52.442;13.284;2023-11-19T08:46:09;9.00;88.30
67050;DHT22;53955;52.442;13.284;2023-11-19T08:48:36;8.90;87.90
67050;DHT22;53955;52.442;13.284;2023-11-19T08:51:03;9.00;88.60
67050;DHT22;53955;52.442;13.284;2023-11-19T08:53:29;9.10;88.60
67050;DHT22;53955;52.442;13.284;2023-11-19T08:55:56;9.20;88.60
67050;DHT22;53955;52.442;13.284;2023-11-19T08:58:23;9.30;88.40
67050;DHT22;53955;52.442;13.284;2023-11-19T09:00:49;9.30;88.30
67050;DHT22;53955;52.442;13.284;2023-11-19T09:03:17;9.30;88.30
67050;DHT22;53955;52.442;13.284;2023-11-19T09:05:43;9.30;88.10
67050;DHT22;53955;52.442;13.284;2023-11-19T09:08:10;9.20;88.70
67050;DHT22;53955;52.442;13.284;2023-11-19T09:10:37;9.40;88.70
67050;DHT22;53955;52.442;13.284;2023-11-19T09:13:04;9.40;88.90
67050;DHT22;53955;52.442;13.284;2023-11-19T09:15:31;9.30;89.20
67050;DHT22;53955;52.442;13.284;2023-11-19T09:17:57;9.50;88.90
67050;DHT22;53955;52.442;13.284;2023-11-19T09:20:25;9.60;89.10
67050;DHT22;53955;52.442;13.284;2023-11-19T09:22:52;9.80;89.10
67050;DHT22;53955;52.442;13.284;2023-11-19T09:25:19;9.90;88.80
67050;DHT22;53955;52.442;13.284;2023-11-19T09:27:46;10.10;88.70
67050;DHT22;53955;52.442;13.284;2023-11-19T09:30:13;10.20;88.20
67050;DHT22;53955;52.442;13.284;2023-11-19T09:32:39;10.30;88.00
67050;DHT22;53955;52.442;13.284;2023-11-19T09:35:06;10.40;88.10
67050;DHT22;53955;52.442;13.284;2023-11-19T09:37:34;10.50;87.60
67050;DHT22;53955;52.442;13.284;2023-11-19T09:40:01;10.70;87.50
67050;DHT22;53955;52.442;13.284;2023-11-19T09:42:27;10.90;87.60
67050;DHT22;53955;52.442;13.284;2023-11-19T09:44:54;10.90;87.50
67050;DHT22;53955;52.442;13.284;2023-11-19T09:47:22;11.00;87.30
67050;DHT22;53955;52.442;13.284;2023-11-19T09:49:49;11.00;87.80
67050;DHT22;53955;52.442;13.284;2023-11-19T09:52:17;11.10;88.10
67050;DHT22;53955;52.442;13.284;2023-11-19T09:54:45;11.10;88.00
67050;DHT22;53955;52.442;13.284;2023-11-19T09:57:13;11.20;88.30
67050;DHT22;53955;52.442;13.284;2023-11-19T09:59:43;11.20;88.30
67050;DHT22;53955;52.442;13.284;2023-11-19T10:02:10;11.40;88.30
67050;DHT22;53955;52.442;13.284;2023-11-19T10:04:38;11.30;88.20
67050;DHT22;53955;52.442;13.284;2023-11-19T10:07:06;11.20;88.20
67050;DHT22;53955;52.442;13.284;2023-11-19T10:09:32;11.20;88.40
67050;DHT22;53955;52.442;13.284;2023-11-19T10:12:00;11.30;88.40
67050;DHT22;53955;52.442;13.284;2023-11-19T10:14:28;11.30;89.00
67050;DHT22;53955;52.442;13.284;2023-11-19T10:16:56;11.30;89.50
67050;DHT22;53955;52.442;13.284;2023-11-19T10:19:24;11.40;89.30
67050;DHT22;53955;52.442;13.284;2023-11-19T10:21:49;11.60;89.20
67050;DHT22;53955;52.442;13.284;2023-11-19T10:24:16;11.60;89.50
67050;DHT22;53955;52.442;13.284;2023-11-19T10:26:42;11.60;89.50
67050;DHT22;53955;52.442;13.284;2023-11-19T10:29:12;11.70;89.80
67050;DHT22;53955;52.442;13.284;2023-11-19T10:31:39;11.90;89.70
67050;DHT22;53955;52.442;13.284;2023-11-19T10:34:24;11.90;89.40
67050;DHT22;53955;52.442;13.284;2023-11-19T10:36:51;11.90;89.20
67050;DHT22;53955;52.442;13.284;2023-11-19T10:39:18;12.20;89.40
67050;DHT22;53955;52.442;13.284;2023-11-19T10:41:46;12.20;89.60
67050;DHT22;53955;52.442;13.284;2023-11-19T10:44:31;12.20;89.40
67050;DHT22;53955;52.442;13.284;2023-11-19T10:46:59;12.30;89.20
67050;DHT22;53955;52.442;13.284;2023-11-19T10:49:25;12.40;89.50
67050;DHT22;53955;52.442;13.284;2023-11-19T10:51:53;12.50;89.00
67050;DHT22;53955;52.442;13.284;2023-11-19T10:54:22;12.50;88.70
67050;DHT22;53955;52.442;13.284;2023-11-19T10:56:54;12.40;89.10
67050;DHT22;53955;52.442;13.284;2023-11-19T10:59:22;12.40;89.30
67050;DHT22;53955;52.442;13.284;2023-11-19T11:01:52;12.50;88.80
67050;DHT22;53955;52.442;13.284;2023-11-19T11:04:22;12.60;89.10
67050;DHT22;53955;52.442;13.284;2023-11-19T11:06:50;12.60;88.60
67050;DHT22;53955;52.442;13.284;2023-11-19T11:09:17;12.60;88.50
67050;DHT22;53955;52.442;13.284;2023-11-19T11:11:46;12.70;88.60
67050;DHT22;53955;52.442;13.284;2023-11-19T11:14:14;12.70;88.50
67050;DHT22;53955;52.442;13.284;2023-11-19T11:16:43;12.70;87.30
67050;DHT22;53955;52.442;13.284;2023-11-19T11:19:11;12.60;88.40
67050;DHT22;53955;52.442;13.284;2023-11-19T11:21:40;12.60;88.50
67050;DHT22;53955;52.442;13.284;2023-11-19T11:24:40;12.60;88.00
67050;DHT22;53955;52.442;13.284;2023-11-19T11:27:43;12.60;88.10
67050;DHT22;53955;52.442;13.284;2023-11-19T11:30:20;12.60;88.30
67050;DHT22;53955;52.442;13.284;2023-11-19T11:33:01;12.60;88.10
67050;DHT22;53955;52.442;13.284;2023-11-19T11:35:38;12.60;87.90
67050;DHT22;53955;52.442;13.284;2023-11-19T11:38:08;12.70;87.00
67050;DHT22;53955;52.442;13.284;2023-11-19T11:40:35;12.70;87.30
67050;DHT22;53955;52.442;13.284;2023-11-19T11:43:02;12.80;86.90
67050;DHT22;53955;52.442;13.284;2023-11-19T11:45:37;12.90;87.20
67050;DHT22;53955;52.442;13.284;2023-11-19T11:48:27;12.90;87.00
67050;DHT22;53955;52.442;13.284;2023-11-19T11:50:57;13.00;86.70
67050;DHT22;53955;52.442;13.284;2023-11-19T11:53:24;13.10;86.20
67050;DHT22;53955;52.442;13.284;2023-11-19T11:55:55;13.20;85.90
67050;DHT22;53955;52.442;13.284;2023-11-19T11:58:26;13.30;85.90
67050;DHT22;53955;52.442;13.284;2023-11-19T12:00:53;13.20;85.80
67050;DHT22;53955;52.442;13.284;2023-11-19T12:03:21;13.30;85.40
67050;DHT22;53955;52.442;13.284;2023-11-19T12:05:49;13.30;85.40
67050;DHT22;53955;52.442;13.284;2023-11-19T12:08:19;13.30;85.30
67050;DHT22;53955;52.442;13.284;2023-11-19T12:10:47;13.30;85.20
67050;DHT22;53955;52.442;13.284;2023-11-19T12:13:16;13.30;85.90
67050;DHT22;53955;52.442;13.284;2023-11-19T12:16:08;13.20;85.50
67050;DHT22;53955;52.442;13.284;2023-11-19T12:18:36;13.20;85.40
67050;DHT22;53955;52.442;13.284;2023-11-19T12:21:06;13.20;85.30
67050;DHT22;53955;52.442;13.284;2023-11-19T12:23:35;13.20;85.40
67050;DHT22;53955;52.442;13.284;2023-11-19T12:26:01;13.30;85.30
67050;DHT22;53955;52.442;13.284;2023-11-19T12:28:29;13.20;85.50
67050;DHT22;53955;52.442;13.284;2023-11-19T12:31:08;13.20;85.30
67050;DHT22;53955;52.442;13.284;2023-11-19T12:33:36;13.20;85.20
67050;DHT22;53955;52.442;13.284;2023-11-19T12:36:03;13.10;85.00
67050;DHT22;53955;52.442;13.284;2023-11-19T12:38:32;13.20;85.10
67050;DHT22;53955;52.442;13.284;2023-11-19T12:41:03;13.20;84.90
67050;DHT22;53955;52.442;13.284;2023-11-19T12:43:30;13.20;84.90
67050;DHT22;53955;52.442;13.284;2023-11-19T12:45:56;13.20;84.70
67050;DHT22;53955;52.442;13.284;2023-11-19T12:48:23;13.20;84.50
67050;DHT22;53955;52.442;13.284;2023-11-19T12:50:53;13.20;84.00
67050;DHT22;53955;52.442;13.284;2023-11-19T12:53:20;13.30;84.20
67050;DHT22;53955;52.442;13.284;2023-11-19T12:55:48;13.30;84.40
67050;DHT22;53955;52.442;13.284;2023-11-19T12:58:31;13.30;84.20
67050;DHT22;53955;52.442;13.284;2023-11-19T13:01:01;13.30;83.80
67050;DHT22;53955;52.442;13.284;2023-11-19T13:03:31;13.20;83.50
67050;DHT22;53955;52.442;13.284;2023-11-19T13:06:02;13.20;84.30
67050;DHT22;53955;52.442;13.284;2023-11-19T13:08:35;13.30;83.70
67050;DHT22;53955;52.442;13.284;2023-11-19T13:11:03;13.40;84.00
67050;DHT22;53955;52.442;13.284;2023-11-19T13:13:30;13.20;83.60
67050;DHT22;53955;52.442;13.284;2023-11-19T13:16:02;13.20;83.80
67050;DHT22;53955;52.442;13.284;2023-11-19T13:18:29;13.10;84.00
67050;DHT22;53955;52.442;13.284;2023-11-19T13:20:56;13.10;83.80
67050;DHT22;53955;52.442;13.284;2023-11-19T13:23:23;13.10;83.70
67050;DHT22;53955;52.442;13.284;2023-11-19T13:25:50;13.10;83.90
67050;DHT22;53955;52.442;13.284;2023-11-19T13:28:18;13.10;84.00
67050;DHT22;53955;52.442;13.284;2023-11-19T13:30:44;13.20;84.00
67050;DHT22;53955;52.442;13.284;2023-11-19T13:33:11;13.10;83.80
67050;DHT22;53955;52.442;13.284;2023-11-19T13:35:38;13.20;83.80
67050;DHT22;53955;52.442;13.284;2023-11-19T13:38:06;13.20;83.80
67050;DHT22;53955;52.442;13.284;2023-11-19T13:40:34;13.30;83.90
67050;DHT22;53955;52.442;13.284;2023-11-19T13:43:00;13.20;83.70
67050;DHT22;53955;52.442;13.284;2023-11-19T13:45:28;13.30;84.00
67050;DHT22;53955;52.442;13.284;2023-11-19T13:47:55;13.30;84.00
67050;DHT22;53955;52.442;13.284;2023-11-19T13:50:21;13.20;84.20
67050;DHT22;53955;52.442;13.284;2023-11-19T13:52:49;13.20;84.50
67050;DHT22;53955;52.442;13.284;2023-11-19T13:55:15;13.10;84.80
67050;DHT22;53955;52.442;13.284;2023-11-19T13:57:42;13.20;84.40
67050;DHT22;53955;52.442;13.284;2023-11-19T14:00:10;13.20;84.80
67050;DHT22;53955;52.442;13.284;2023-11-19T14:02:39;13.10;85.50
67050;DHT22;53955;52.442;13.284;2023-11-19T14:05:06;13.10;85.40
67050;DHT22;53955;52.442;13.284;2023-11-19T14:07:33;13.20;85.10
67050;DHT22;53955;52.442;13.284;2023-11-19T14:10:00;13.10;85.60
67050;DHT22;53955;52.442;13.284;2023-11-19T14:12:26;13.10;85.30
67050;DHT22;53955;52.442;13.284;2023-11-19T14:14:53;13.00;85.20
67050;DHT22;53955;52.442;13.284;2023-11-19T14:17:19;13.10;85.30
67050;DHT22;53955;52.442;13.284;2023-11-19T14:19:47;13.10;85.20
67050;DHT22;53955;52.442;13.284;2023-11-19T14:22:14;13.10;84.80
67050;DHT22;53955;52.442;13.284;2023-11-19T14:24:40;13.00;84.90
67050;DHT22;53955;52.442;13.284;2023-11-19T14:27:08;13.00;84.70
67050;DHT22;53955;52.442;13.284;2023-11-19T14:29:35;13.10;84.30
67050;DHT22;53955;52.442;13.284;2023-11-19T14:32:02;13.00;84.40
67050;DHT22;53955;52.442;13.284;2023-11-19T14:34:29;13.10;83.60
67050;DHT22;53955;52.442;13.284;2023-11-19T14:36:57;13.00;83.80
67050;DHT22;53955;52.442;13.284;2023-11-19T14:39:23;13.00;84.10
67050;DHT22;53955;52.442;13.284;2023-11-19T14:41:50;13.00;83.60
67050;DHT22;53955;52.442;13.284;2023-11-19T14:44:18;13.00;83.30
67050;DHT22;53955;52.442;13.284;2023-11-19T14:46:45;13.00;83.30
67050;DHT22;53955;52.442;13.284;2023-11-19T14:49:12;12.90;83.80
67050;DHT22;53955;52.442;13.284;2023-11-19T14:51:39;13.00;83.90
67050;DHT22;53955;52.442;13.284;2023-11-19T14:54:07;13.00;84.30
67050;DHT22;53955;52.442;13.284;2023-11-19T14:56:33;12.90;84.40
67050;DHT22;53955;52.442;13.284;2023-11-19T14:59:00;12.90;84.30
67050;DHT22;53955;52.442;13.284;2023-11-19T15:01:27;12.90;84.70
67050;DHT22;53955;52.442;13.284;2023-11-19T15:03:54;12.90;84.90
67050;DHT22;53955;52.442;13.284;2023-11-19T15:06:23;12.90;85.30
67050;DHT22;53955;52.442;13.284;2023-11-19T15:08:49;12.90;85.30
67050;DHT22;53955;52.442;13.284;2023-11-19T15:11:17;12.90;85.40
67050;DHT22;53955;52.442;13.284;2023-11-19T15:13:44;12.90;85.70
67050;DHT22;53955;52.442;13.284;2023-11-19T15:16:10;12.80;85.80
67050;DHT22;53955;52.442;13.284;2023-11-19T15:18:39;12.80;86.40
67050;DHT22;53955;52.442;13.284;2023-11-19T15:21:06;12.80;86.30
67050;DHT22;53955;52.442;13.284;2023-11-19T15:23:33;12.80;86.20
67050;DHT22;53955;52.442;13.284;2023-11-19T15:26:00;12.80;86.50
67050;DHT22;53955;52.442;13.284;2023-11-19T15:28:28;12.70;86.40
67050;DHT22;53955;52.442;13.284;2023-11-19T15:30:54;12.80;86.20